Time;durP1;ratioP1;P1;durP2;ratioP2;P2;SDS_P1;SDS_P2;PMS_P1;PMS_P2;Temp;Humidity;BMP_temperature;BMP_pressure;BME280_temperature;BME280_humidity;BME280_pressure;Samples;Min_cycle;Max_cycle;Signal;HPM_P1;HPM_P2
2022/09/11 00:05:24;;;;;;;2.7;6.2;;;;;;;13;83.4;98320;;;;
2022/09/11 00:15:24;;;;;;;3.5;8.1;;;;;;;12.9;83.7;98320;;;;
2022/09/11 00:25:24;;;;;;;3.5;8.1;;;;;;;12.9;84.1;98310;;;;
2022/09/11 00:36:24;;;;;;;3.5;8.1;;;;;;;12.9;84.5;98310;;;;
2022/09/11 00:47:24;;;;;;;3.3;10.7;;;;;;;13;85.1;98320;;;;
2022/09/11 00:57:24;;;;;;;3.3;10.7;;;;;;;13.1;85.4;98320;;;;
2022/09/11 01:08:24;;;;;;;3.3;10.7;;;;;;;13.3;85.7;98310;;;;
2022/09/11 01:19:25;;;;;;;3.7;6.8;;;;;;;13.6;86;98310;;;;
2022/09/11 01:30:25;;;;;;;3.7;6.8;;;;;;;13.9;86.3;98320;;;;
2022/09/11 01:41:26;;;;;;;4.8;8.1;;;;;;;14;86.7;98300;;;;
2022/09/11 01:51:24;;;;;;;4.8;8.1;;;;;;;14.3;86.3;98300;;;;
2022/09/11 02:02:24;;;;;;;4.8;8.1;;;;;;;14.4;86.4;98310;;;;
2022/09/11 02:12:25;;;;;;;3.7;9.2;;;;;;;14.4;86.6;98300;;;;
2022/09/11 02:23:24;;;;;;;3.7;9.2;;;;;;;14.3;86.5;98290;;;;
2022/09/11 02:33:25;;;;;;;3.7;9.2;;;;;;;14.3;86.5;98280;;;;
2022/09/11 02:44:24;;;;;;;5.1;8.4;;;;;;;14.2;86.2;98280;;;;
2022/09/11 02:54:24;;;;;;;5.1;8.4;;;;;;;14.1;86.1;98280;;;;
2022/09/11 03:05:24;;;;;;;5.1;8.4;;;;;;;14.2;86.7;98290;;;;
2022/09/11 03:15:24;;;;;;;3.4;6.1;;;;;;;14.3;86.7;98280;;;;
2022/09/11 03:25:26;;;;;;;3.4;6.1;;;;;;;14.3;86.4;98280;;;;
2022/09/11 03:36:25;;;;;;;3.4;6.1;;;;;;;14.1;86.1;98290;;;;
2022/09/11 03:46:24;;;;;;;2.6;4.8;;;;;;;14.2;86.2;98280;;;;
2022/09/11 03:56:24;;;;;;;2.6;4.8;;;;;;;14.2;86.4;98280;;;;
2022/09/11 04:06:25;;;;;;;2.6;4.8;;;;;;;14.2;86.6;98280;;;;
2022/09/11 04:17:25;;;;;;;2.5;5.4;;;;;;;14.2;86.8;98280;;;;
2022/09/11 04:28:25;;;;;;;2.5;5.4;;;;;;;14.4;86.6;98280;;;;
2022/09/11 04:38:25;;;;;;;2.5;5.4;;;;;;;14.4;86.5;98290;;;;
2022/09/11 04:49:24;;;;;;;3.9;7.3;;;;;;;14.6;86.2;98290;;;;
2022/09/11 05:00:25;;;;;;;3.9;7.3;;;;;;;14.8;85.8;98290;;;;
2022/09/11 05:10:26;;;;;;;3.9;7.3;;;;;;;14.8;85.3;98290;;;;
2022/09/11 05:21:24;;;;;;;3.5;6.7;;;;;;;14.8;85.2;98290;;;;
2022/09/11 05:32:25;;;;;;;3.5;6.7;;;;;;;15;84.7;98290;;;;
2022/09/11 05:43:25;;;;;;;3.3;5.7;;;;;;;15;84.2;98300;;;;
2022/09/11 05:54:25;;;;;;;3.3;5.7;;;;;;;15.3;83.3;98290;;;;
2022/09/11 06:05:25;;;;;;;3.3;5.7;;;;;;;15.7;82.5;98300;;;;
2022/09/11 06:16:25;;;;;;;3.9;7.4;;;;;;;15.9;81.6;98300;;;;
2022/09/11 06:27:25;;;;;;;3.9;7.4;;;;;;;16.2;81.8;98310;;;;
2022/09/11 06:38:25;;;;;;;3.9;7.4;;;;;;;16.4;81.2;98310;;;;
2022/09/11 06:49:25;;;;;;;3.2;7.6;;;;;;;16.5;80.5;98310;;;;
2022/09/11 07:00:25;;;;;;;3.2;7.6;;;;;;;16.4;81.1;98300;;;;
2022/09/11 07:10:25;;;;;;;3.2;7.6;;;;;;;16.7;80;98300;;;;
2022/09/11 07:21:25;;;;;;;3.3;6.3;;;;;;;16.5;80.7;98300;;;;
2022/09/11 07:31:25;;;;;;;3.3;6.3;;;;;;;16.4;81.4;98300;;;;
2022/09/11 07:42:25;;;;;;;4.7;6.8;;;;;;;16.5;81.2;98300;;;;
2022/09/11 07:52:25;;;;;;;4.7;6.8;;;;;;;16.4;80.4;98290;;;;
2022/09/11 08:03:25;;;;;;;4.7;6.8;;;;;;;16.4;80.8;98310;;;;
2022/09/11 08:13:25;;;;;;;6.3;10;;;;;;;16.1;81.2;98310;;;;
2022/09/11 08:24:26;;;;;;;6.3;10;;;;;;;15.9;83.2;98310;;;;
2022/09/11 08:35:25;;;;;;;6.3;10;;;;;;;16.1;83.6;98320;;;;
2022/09/11 08:45:24;;;;;;;8;12;;;;;;;16.1;84;98320;;;;
2022/09/11 08:56:25;;;;;;;8;12;;;;;;;16.1;83.4;98330;;;;
2022/09/11 09:07:25;;;;;;;8;12;;;;;;;16.2;83;98330;;;;
2022/09/11 09:17:25;;;;;;;4.9;8.4;;;;;;;16.3;82.3;98340;;;;
2022/09/11 09:27:25;;;;;;;4.9;8.4;;;;;;;16.3;81.2;98340;;;;
2022/09/11 09:38:25;;;;;;;4.9;8.4;;;;;;;17;80.1;98330;;;;
2022/09/11 09:48:25;;;;;;;4.7;6.8;;;;;;;17.2;78.7;98330;;;;
2022/09/11 09:59:25;;;;;;;4.7;6.8;;;;;;;17.4;77.5;98340;;;;
2022/09/11 10:09:25;;;;;;;4.7;6.8;;;;;;;17.4;76.6;98330;;;;
2022/09/11 10:20:26;;;;;;;3.8;5.6;;;;;;;17.7;76.8;98340;;;;
2022/09/11 10:30:25;;;;;;;3.8;5.6;;;;;;;18;74.7;98340;;;;
2022/09/11 10:40:25;;;;;;;3.8;5.6;;;;;;;18.2;74.3;98340;;;;
2022/09/11 10:51:25;;;;;;;4;7.2;;;;;;;18.6;73.3;98330;;;;
2022/09/11 11:02:25;;;;;;;4;7.2;;;;;;;19.1;73.2;98330;;;;
2022/09/11 11:12:31;;;;;;;3.5;5.5;;;;;;;19;72.1;98330;;;;
2022/09/11 11:22:25;;;;;;;3.5;5.5;;;;;;;18.5;73;98340;;;;
2022/09/11 11:33:25;;;;;;;3.5;5.5;;;;;;;18;74.8;98350;;;;
2022/09/11 11:43:26;;;;;;;4.3;6.5;;;;;;;18.3;75.9;98350;;;;
2022/09/11 11:54:25;;;;;;;4.3;6.5;;;;;;;18.6;74.2;98360;;;;
2022/09/11 12:05:25;;;;;;;4.3;6.5;;;;;;;18.6;72.5;98350;;;;
2022/09/11 12:16:27;;;;;;;4.8;7.5;;;;;;;18.6;73.1;98350;;;;
2022/09/11 12:26:25;;;;;;;4.8;7.5;;;;;;;18.4;75.2;98340;;;;
2022/09/11 12:37:25;;;;;;;4.8;7.5;;;;;;;18.5;75.9;98350;;;;
2022/09/11 12:47:26;;;;;;;4.1;6.1;;;;;;;18.9;73.1;98340;;;;
2022/09/11 12:58:25;;;;;;;4.1;6.1;;;;;;;19.1;71.2;98320;;;;
2022/09/11 13:08:25;;;;;;;4.1;6.1;;;;;;;19.4;72;98310;;;;
2022/09/11 13:19:25;;;;;;;3.9;7.6;;;;;;;19.5;70.9;98310;;;;
2022/09/11 13:29:25;;;;;;;3.9;7.6;;;;;;;19.2;71;98310;;;;
2022/09/11 13:40:25;;;;;;;3.9;7.6;;;;;;;19.1;69.7;98310;;;;
2022/09/11 13:50:25;;;;;;;3.5;6.6;;;;;;;19.1;70.4;98300;;;;
2022/09/11 14:00:25;;;;;;;3.5;6.6;;;;;;;19.2;69.4;98300;;;;
2022/09/11 14:11:25;;;;;;;2.9;5.3;;;;;;;19;69.7;98300;;;;
2022/09/11 14:21:25;;;;;;;2.9;5.3;;;;;;;18.8;69.5;98300;;;;
2022/09/11 14:31:25;;;;;;;2.9;5.3;;;;;;;19.3;68.9;98290;;;;
2022/09/11 14:42:25;;;;;;;2.2;4.4;;;;;;;19.8;67.6;98280;;;;
2022/09/11 14:52:25;;;;;;;2.2;4.4;;;;;;;19.5;67.3;98270;;;;
2022/09/11 15:03:25;;;;;;;2.2;4.4;;;;;;;18.9;68.9;98280;;;;
2022/09/11 15:13:26;;;;;;;2.6;4.9;;;;;;;18.3;72.7;98320;;;;
2022/09/11 15:23:25;;;;;;;2.6;4.9;;;;;;;16.2;80.8;98340;;;;
2022/09/11 15:34:26;;;;;;;2.6;4.9;;;;;;;14.9;87.6;98340;;;;
2022/09/11 15:45:25;;;;;;;2;4.3;;;;;;;14.8;90;98350;;;;
2022/09/11 15:55:26;;;;;;;2;4.3;;;;;;;14.9;90.8;98350;;;;
2022/09/11 16:06:25;;;;;;;2;4.3;;;;;;;15;91.3;98360;;;;
2022/09/11 16:16:25;;;;;;;3.7;6.2;;;;;;;15.3;91.8;98370;;;;
2022/09/11 16:26:26;;;;;;;3.7;6.2;;;;;;;15.5;91.9;98370;;;;
2022/09/11 16:36:28;;;;;;;3.7;6.2;;;;;;;15.1;90.5;98380;;;;
2022/09/11 16:46:25;;;;;;;4.1;7.1;;;;;;;14.9;89.3;98390;;;;
2022/09/11 16:57:26;;;;;;;4.1;7.1;;;;;;;14.8;90.9;98400;;;;
2022/09/11 17:08:25;;;;;;;4.1;7.1;;;;;;;14.9;91.7;98410;;;;
2022/09/11 17:18:25;;;;;;;9.7;12.5;;;;;;;14.8;91.8;98420;;;;
2022/09/11 17:28:25;;;;;;;9.7;12.5;;;;;;;14.9;92.1;98430;;;;
2022/09/11 17:38:25;;;;;;;9.7;12.5;;;;;;;14.8;92;98450;;;;
2022/09/11 17:48:25;;;;;;;10.1;12.4;;;;;;;14.6;91.7;98460;;;;
2022/09/11 17:59:25;;;;;;;10.1;12.4;;;;;;;14.5;91.6;98470;;;;
2022/09/11 18:10:25;;;;;;;10.1;12.4;;;;;;;14.4;91.7;98480;;;;
2022/09/11 18:20:25;;;;;;;13.6;16.4;;;;;;;14.3;90.9;98480;;;;
2022/09/11 18:31:27;;;;;;;13.6;16.4;;;;;;;14.2;91;98490;;;;
2022/09/11 18:42:25;;;;;;;5.3;8.3;;;;;;;14.1;91;98510;;;;
2022/09/11 18:52:25;;;;;;;5.3;8.3;;;;;;;14;91.1;98510;;;;
2022/09/11 19:02:25;;;;;;;5.3;8.3;;;;;;;13.9;91;98520;;;;
2022/09/11 19:13:25;;;;;;;6.4;10.7;;;;;;;13.8;91.3;98520;;;;
2022/09/11 19:24:27;;;;;;;6.4;10.7;;;;;;;13.8;91.4;98530;;;;
2022/09/11 19:34:25;;;;;;;6.4;10.7;;;;;;;13.7;91.2;98540;;;;
2022/09/11 19:44:25;;;;;;;5.6;9.6;;;;;;;13.7;91.6;98540;;;;
2022/09/11 19:54:25;;;;;;;5.6;9.6;;;;;;;13.7;92;98550;;;;
2022/09/11 20:05:25;;;;;;;5.6;9.6;;;;;;;13.7;92.2;98550;;;;
2022/09/11 20:15:25;;;;;;;5.8;10.2;;;;;;;13.7;92.2;98550;;;;
2022/09/11 20:25:25;;;;;;;5.8;10.2;;;;;;;13.7;92.2;98550;;;;
2022/09/11 20:36:28;;;;;;;5.8;10.2;;;;;;;13.6;92.2;98560;;;;
2022/09/11 20:46:25;;;;;;;7.2;11.2;;;;;;;13.6;92.5;98560;;;;
2022/09/11 20:57:25;;;;;;;7.2;11.2;;;;;;;13.6;92.6;98570;;;;
2022/09/11 21:07:25;;;;;;;7.2;11.2;;;;;;;13.5;92.6;98570;;;;
2022/09/11 21:18:25;;;;;;;8.9;14.3;;;;;;;13.3;92.5;98570;;;;
2022/09/11 21:28:25;;;;;;;8.9;14.3;;;;;;;13.2;92.5;98570;;;;
2022/09/11 21:38:27;;;;;;;8.9;14.3;;;;;;;13;92.4;98570;;;;
2022/09/11 21:48:25;;;;;;;8.3;17.5;;;;;;;12.9;92.4;98570;;;;
2022/09/11 21:59:25;;;;;;;8.3;17.5;;;;;;;12.8;92.2;98570;;;;
2022/09/11 22:09:25;;;;;;;8.3;17.5;;;;;;;12.7;92.2;98570;;;;
2022/09/11 22:20:25;;;;;;;6.9;9.8;;;;;;;12.6;92.5;98570;;;;
2022/09/11 22:31:26;;;;;;;6.9;9.8;;;;;;;12.6;92.3;98570;;;;
2022/09/11 22:41:25;;;;;;;8.8;13.3;;;;;;;12.6;92.6;98580;;;;
2022/09/11 22:52:25;;;;;;;8.8;13.3;;;;;;;12.5;92.8;98580;;;;
2022/09/11 23:03:25;;;;;;;8.8;13.3;;;;;;;12.5;93;98570;;;;
2022/09/11 23:13:25;;;;;;;8.6;11.4;;;;;;;12.6;93.4;98580;;;;
2022/09/11 23:23:25;;;;;;;8.6;11.4;;;;;;;12.6;93.5;98580;;;;
2022/09/11 23:34:25;;;;;;;8.6;11.4;;;;;;;12.6;93.1;98580;;;;
2022/09/11 23:44:25;;;;;;;7.9;12.5;;;;;;;12.4;93.1;98580;;;;
2022/09/11 23:55:25;;;;;;;7.9;12.5;;;;;;;12.4;93.4;98570;;;;
